Pacolet, South Carolina
Current Conditions -  °F | °C
As of 3:55 PM on Thursday 18 Dec 2014 (Local Time) from KSPA Reporting Station
Clear Clear  
Wind Chill: 59°   Ceiling: Unl
Heat Index: 59°   Visibility: 10mi
Dew Point: 25°   Wind: 3mph
Humidity: 27%   Direction: 200°SSW
Pressure: 30.06"   Gusts: NA
Location:  34.9°N, 81.76°W
Report Text: KSPA 182055Z AUTO 20003KT 10SM CLR 15/M04 A3006 RMK AO2
Loading
Personal Weather Stations






























Interactive Weather Map New forecast layout! Learn more

10-Day Weather Forecast

Advertisements
Track Severe Weather on mobile